Time;durP1;ratioP1;P1;durP2;ratioP2;P2;SDS_P1;SDS_P2;PMS_P1;PMS_P2;Temp;Humidity;BMP_temperature;BMP_pressure;BME280_temperature;BME280_humidity;BME280_pressure;Samples;Min_cycle;Max_cycle;Signal;HPM_P1;HPM_P2
2023/01/12 00:01:23;;;;;;;13.83;3.77;;;7.80;44.30;;;;;;4957176;29;20417;-68
2023/01/12 00:03:50;;;;;;;21.90;4.60;;;7.80;71.80;;;;;;4956233;29;20926;-69
2023/01/12 00:06:18;;;;;;;12.33;3.37;;;7.90;1.00;;;;;;4957254;28;20457;-69
2023/01/12 00:08:44;;;;;;;13.23;2.90;;;7.90;1.00;;;;;;4955582;29;20449;-69
2023/01/12 00:11:11;;;;;;;12.63;3.73;;;7.90;1.00;;;;;;4955987;29;20548;-68
2023/01/12 00:13:36;;;;;;;12.70;3.53;;;7.90;1.00;;;;;;4956002;29;20441;-67
2023/01/12 00:18:48;;;;;;;7.63;3.23;;;7.90;1.00;;;;;;4955745;29;20205;-61
2023/01/12 00:21:14;;;;;;;6.67;2.90;;;8.00;11.30;;;;;;4955849;29;20811;-69
2023/01/12 00:23:41;;;;;;;8.87;3.40;;;7.90;48.70;;;;;;4955276;28;20461;-68
2023/01/12 00:26:07;;;;;;;12.30;3.53;;;7.90;99.90;;;;;;4956516;28;20749;-69
2023/01/12 00:28:34;;;;;;;11.13;3.20;;;7.90;99.90;;;;;;4947498;29;20453;-67
2023/01/12 00:31:01;;;;;;;19.10;4.00;;;8.00;91.70;;;;;;4952620;29;20476;-68
2023/01/12 00:33:26;;;;;;;7.17;3.17;;;8.00;30.00;;;;;;4955158;28;20540;-67
2023/01/12 00:35:52;;;;;;;19.47;3.83;;;8.00;1.00;;;;;;4955802;28;20648;-66
2023/01/12 00:38:17;;;;;;;12.73;3.37;;;8.00;1.00;;;;;;4955253;29;20212;-66
2023/01/12 00:40:43;;;;;;;17.40;3.80;;;8.00;1.00;;;;;;4970638;28;20189;-66
2023/01/12 00:45:53;;;;;;;13.30;3.00;;;8.00;1.00;;;;;;4955515;28;20205;-69
2023/01/12 00:48:18;;;;;;;12.33;3.10;;;8.00;1.00;;;;;;4955179;29;21187;-68
2023/01/12 00:50:47;;;;;;;10.93;3.07;;;8.00;1.00;;;;;;4955734;29;20644;-59
2023/01/12 00:53:12;;;;;;;13.10;3.03;;;8.00;1.00;;;;;;4955197;29;20193;-68
2023/01/12 00:55:38;;;;;;;13.13;3.10;;;8.00;1.00;;;;;;4955551;28;20863;-67
2023/01/12 00:58:04;;;;;;;12.30;3.30;;;8.10;1.00;;;;;;4973415;28;20189;-67
2023/01/12 01:00:30;;;;;;;10.87;3.13;;;8.10;99.90;;;;;;4966074;28;20197;-67
2023/01/12 01:02:55;;;;;;;8.90;3.33;;;8.10;99.90;;;;;;4956010;28;20436;-62
2023/01/12 01:05:21;;;;;;;8.27;3.10;;;8.10;99.90;;;;;;4954953;28;20975;-67
2023/01/12 01:07:46;;;;;;;11.67;3.30;;;8.10;99.90;;;;;;4955255;29;20545;-64
2023/01/12 01:10:13;;;;;;;12.30;3.33;;;8.10;99.90;;;;;;4955266;28;20204;-67
2023/01/12 01:12:40;;;;;;;11.13;3.10;;;8.10;99.90;;;;;;4955233;29;20205;-67
2023/01/12 01:15:06;;;;;;;16.77;3.67;;;8.10;99.90;;;;;;4955144;28;20455;-66
2023/01/12 01:17:31;;;;;;;12.50;3.37;;;8.10;99.90;;;;;;4955127;29;20422;-67
2023/01/12 01:19:57;;;;;;;8.00;3.03;;;8.10;99.90;;;;;;4954615;29;20933;-68
2023/01/12 01:22:23;;;;;;;12.87;3.17;;;8.10;99.90;;;;;;4955264;29;20536;-65
2023/01/12 01:24:48;;;;;;;15.27;3.30;;;8.20;1.00;;;;;;4954900;29;20228;-65
2023/01/12 01:27:14;;;;;;;12.07;3.27;;;8.20;1.00;;;;;;4954231;29;20201;-65
2023/01/12 01:29:40;;;;;;;8.30;3.23;;;8.20;1.00;;;;;;4954939;28;20272;-68
2023/01/12 01:32:06;;;;;;;13.80;3.27;;;8.20;1.00;;;;;;4963877;28;20198;-64
2023/01/12 01:34:32;;;;;;;9.80;3.30;;;8.20;1.00;;;;;;4954056;29;20607;-51
2023/01/12 01:36:58;;;;;;;9.60;3.10;;;8.20;1.00;;;;;;4954840;29;20645;-62
2023/01/12 01:39:24;;;;;;;5.93;2.63;;;8.30;99.90;;;;;;4954403;29;20931;-62
2023/01/12 01:41:50;;;;;;;6.60;2.87;;;8.30;99.90;;;;;;4946560;28;20221;-63
2023/01/12 01:44:28;;;;;;;10.70;3.17;;;8.40;99.90;;;;;;4954860;29;20413;-63
2023/01/12 01:47:04;;;;;;;6.30;2.30;;;8.40;99.90;;;;;;4946502;28;20476;-63
2023/01/12 01:49:36;;;;;;;10.20;2.50;;;8.40;99.90;;;;;;4947127;29;20428;-63
2023/01/12 01:52:08;;;;;;;14.00;3.00;;;8.40;99.90;;;;;;4953678;28;20437;-68
2023/01/12 01:54:54;;;;;;;7.13;2.90;;;8.40;99.90;;;;;;4954227;29;20410;-63
2023/01/12 01:57:24;;;;;;;14.80;4.80;;;8.40;99.90;;;;;;4954227;29;20441;-64
2023/01/12 01:59:53;;;;;;;10.53;2.27;;;8.40;99.90;;;;;;4953334;28;20931;-66
2023/01/12 02:02:19;;;;;;;8.43;2.70;;;8.40;99.90;;;;;;4953336;28;20433;-64
2023/01/12 02:04:45;;;;;;;6.33;2.70;;;8.50;99.90;;;;;;4954403;28;20424;-64
2023/01/12 02:07:11;;;;;;;11.60;2.90;;;8.40;99.90;;;;;;4953587;29;20496;-63
2023/01/12 02:09:38;;;;;;;8.43;2.83;;;8.40;99.90;;;;;;4953388;29;20216;-64
2023/01/12 02:17:56;;;;;;;10.10;2.70;;;8.50;99.90;;;;;;4954124;29;20830;-63
2023/01/12 02:20:35;;;;;;;8.23;2.57;;;8.50;99.90;;;;;;4945199;28;20625;-64
2023/01/12 02:23:16;;;;;;;10.17;2.50;;;8.50;99.90;;;;;;4970899;28;20420;-63
2023/01/12 02:26:06;;;;;;;9.07;3.10;;;8.50;99.90;;;;;;4965495;28;20445;-64
2023/01/12 02:29:16;;;;;;;13.37;3.00;;;8.50;99.90;;;;;;4953825;28;20421;-64
2023/01/12 02:31:42;;;;;;;13.30;2.97;;;8.50;99.90;;;;;;4953118;28;20461;-64
2023/01/12 02:34:32;;;;;;;9.10;3.07;;;8.50;99.90;;;;;;4953837;28;20448;-61
2023/01/12 02:37:25;;;;;;;11.40;3.33;;;8.50;99.90;;;;;;4945945;29;20520;-62
2023/01/12 02:40:00;;;;;;;14.00;3.50;;;8.60;99.90;;;;;;4954049;28;20433;-63
2023/01/12 02:42:49;;;;;;;12.30;2.80;;;8.60;99.90;;;;;;4953272;29;20469;-64
2023/01/12 02:45:53;;;;;;;13.70;3.10;;;8.60;99.90;;;;;;4953341;28;20420;-63
2023/01/12 02:48:44;;;;;;;7.50;2.77;;;8.60;99.90;;;;;;4934577;29;20888;-64
2023/01/12 02:51:13;;;;;;;9.67;2.60;;;8.50;99.90;;;;;;4941820;29;20434;-65
2023/01/12 02:53:50;;;;;;;9.23;2.40;;;8.50;99.90;;;;;;4953505;29;20416;-64
2023/01/12 02:56:27;;;;;;;7.30;2.77;;;8.50;99.90;;;;;;4951741;29;20453;-64
2023/01/12 02:58:57;;;;;;;10.40;3.30;;;8.50;99.90;;;;;;4953571;29;20409;-65
2023/01/12 03:01:25;;;;;;;6.67;2.93;;;8.50;99.90;;;;;;4952818;28;20437;-64
2023/01/12 03:03:52;;;;;;;8.50;2.80;;;8.50;99.90;;;;;;4953346;28;20928;-60
2023/01/12 03:06:18;;;;;;;10.00;3.40;;;8.40;99.90;;;;;;4953115;29;20477;-65
2023/01/12 03:08:46;;;;;;;11.50;2.90;;;8.40;99.90;;;;;;4953219;28;20889;-69
2023/01/12 03:11:17;;;;;;;12.70;2.83;;;8.40;99.90;;;;;;4952260;29;20232;-64
2023/01/12 03:13:51;;;;;;;9.10;2.77;;;8.40;99.90;;;;;;4951483;29;20445;-63
2023/01/12 03:16:31;;;;;;;15.33;3.10;;;8.40;99.90;;;;;;4951851;29;20572;-69
2023/01/12 03:19:17;;;;;;;9.00;3.80;;;8.40;99.90;;;;;;4952839;29;20451;-64
2023/01/12 03:21:50;;;;;;;7.57;2.33;;;8.40;99.90;;;;;;4951676;29;20449;-64
2023/01/12 03:24:21;;;;;;;7.87;2.77;;;8.30;99.90;;;;;;4951776;28;20540;-63
2023/01/12 03:26:53;;;;;;;8.13;2.50;;;8.30;99.90;;;;;;4949961;29;20471;-65
2023/01/12 03:29:26;;;;;;;10.40;2.50;;;8.40;99.90;;;;;;4953049;29;20412;-63
2023/01/12 03:31:53;;;;;;;8.07;2.30;;;8.30;99.90;;;;;;4951905;28;20474;-64
2023/01/12 03:34:19;;;;;;;10.47;1.97;;;8.30;99.90;;;;;;4946050;28;20457;-65
2023/01/12 03:37:25;;;;;;;7.97;2.10;;;8.30;99.90;;;;;;4950976;29;20485;-66
2023/01/12 03:40:02;;;;;;;8.30;2.30;;;8.40;99.90;;;;;;4905094;29;21047;-65
2023/01/12 03:42:47;;;;;;;10.70;2.00;;;8.40;99.90;;;;;;4951680;29;20469;-63
2023/01/12 03:45:31;;;;;;;5.50;2.00;;;8.30;99.90;;;;;;4952439;29;20444;-62
2023/01/12 03:48:22;;;;;;;6.10;1.80;;;8.30;99.90;;;;;;4952600;29;20805;-62
2023/01/12 03:51:00;;;;;;;4.23;1.90;;;8.30;99.90;;;;;;4941443;29;20477;-63
2023/01/12 03:53:27;;;;;;;4.93;2.00;;;8.30;99.90;;;;;;4952925;29;20868;-63
2023/01/12 03:55:57;;;;;;;4.47;2.10;;;8.20;99.90;;;;;;4950935;29;20476;-63
2023/01/12 03:58:24;;;;;;;7.37;2.20;;;8.20;99.90;;;;;;4950451;29;20432;-62
2023/01/12 04:00:50;;;;;;;5.20;2.07;;;8.30;99.90;;;;;;4952368;28;20449;-66
2023/01/12 04:03:16;;;;;;;5.93;2.40;;;8.30;99.90;;;;;;4952059;28;20505;-66
2023/01/12 04:05:43;;;;;;;10.93;2.80;;;8.20;99.90;;;;;;4951603;28;20205;-64
2023/01/12 04:08:11;;;;;;;10.47;3.10;;;8.20;99.90;;;;;;4951754;29;20445;-64
2023/01/12 04:10:37;;;;;;;15.10;2.77;;;8.20;99.90;;;;;;4952513;29;20951;-64
2023/01/12 04:13:02;;;;;;;8.00;2.70;;;8.20;99.90;;;;;;4951071;29;20453;-64
2023/01/12 04:15:28;;;;;;;7.07;2.83;;;8.20;99.90;;;;;;4951426;29;20284;-63
2023/01/12 04:17:54;;;;;;;8.13;2.80;;;8.20;1.00;;;;;;4952124;29;20209;-64
2023/01/12 04:20:20;;;;;;;5.70;2.80;;;8.20;1.00;;;;;;4944125;29;20837;-63
2023/01/12 04:22:45;;;;;;;7.67;2.43;;;8.20;1.00;;;;;;4951741;29;20193;-62
2023/01/12 04:25:29;;;;;;;7.90;2.90;;;8.20;1.00;;;;;;4952031;29;20980;-64
2023/01/12 04:28:06;;;;;;;9.20;2.93;;;8.20;1.00;;;;;;4951981;29;20198;-63
2023/01/12 04:30:33;;;;;;;7.97;2.70;;;8.30;1.00;;;;;;4952120;28;20456;-64
2023/01/12 04:33:04;;;;;;;15.23;2.90;;;8.30;1.00;;;;;;4952067;29;20490;-64
2023/01/12 04:35:30;;;;;;;7.40;3.00;;;8.30;1.00;;;;;;4950689;28;20480;-64
2023/01/12 04:37:55;;;;;;;6.20;3.20;;;8.30;1.00;;;;;;4956069;28;20524;-63
2023/01/12 04:40:21;;;;;;;7.00;3.43;;;8.30;1.00;;;;;;4954810;29;20601;-65
2023/01/12 04:43:02;;;;;;;7.63;3.00;;;8.20;1.00;;;;;;4955964;29;20193;-65
2023/01/12 04:45:30;;;;;;;8.10;2.83;;;8.20;25.20;;;;;;4955176;28;20205;-67
2023/01/12 04:48:06;;;;;;;9.70;3.20;;;8.10;99.90;;;;;;4956093;29;20417;-67
2023/01/12 04:50:32;;;;;;;8.27;2.67;;;8.10;99.90;;;;;;4954757;29;20440;-66
2023/01/12 04:53:01;;;;;;;11.30;2.90;;;8.10;99.90;;;;;;4955771;28;20924;-66
2023/01/12 04:55:27;;;;;;;16.00;3.20;;;8.20;99.90;;;;;;4956043;28;20253;-66
2023/01/12 04:57:52;;;;;;;8.80;2.23;;;8.20;99.90;;;;;;4955212;29;20841;-60
2023/01/12 05:00:19;;;;;;;6.20;2.90;;;8.20;99.90;;;;;;4955578;28;20213;-67
2023/01/12 05:02:44;;;;;;;7.47;2.53;;;8.20;99.90;;;;;;4954998;29;20834;-68
2023/01/12 05:05:10;;;;;;;10.30;3.10;;;8.20;99.90;;;;;;4955387;28;20431;-66
2023/01/12 05:07:36;;;;;;;10.93;3.03;;;8.20;99.90;;;;;;4955033;29;20216;-67
2023/01/12 05:12:46;;;;;;;8.30;2.83;;;8.30;99.90;;;;;;4955587;28;20244;-66
2023/01/12 05:15:11;;;;;;;4.37;2.80;;;8.30;99.90;;;;;;4954817;28;20461;-67
2023/01/12 05:17:37;;;;;;;9.33;3.43;;;8.30;99.90;;;;;;4955180;28;20301;-67
2023/01/12 05:20:02;;;;;;;6.53;2.83;;;8.30;1.00;;;;;;4955202;29;20174;-68
2023/01/12 05:22:30;;;;;;;5.97;2.63;;;8.30;1.00;;;;;;4954836;29;20186;-60
2023/01/12 05:24:56;;;;;;;4.73;2.70;;;8.30;99.90;;;;;;4955387;29;20269;-68
2023/01/12 05:27:21;;;;;;;4.70;2.50;;;8.30;99.90;;;;;;4948964;29;20465;-51
2023/01/12 05:29:48;;;;;;;13.23;3.03;;;8.30;1.00;;;;;;4955378;28;20205;-70
2023/01/12 05:32:13;;;;;;;7.70;3.40;;;8.20;1.00;;;;;;4955848;28;20217;-69
2023/01/12 05:34:40;;;;;;;8.43;3.53;;;8.20;1.00;;;;;;4956371;29;20461;-64
2023/01/12 05:37:06;;;;;;;8.90;3.10;;;8.20;1.00;;;;;;4956872;29;20558;-70
2023/01/12 05:39:31;;;;;;;10.03;3.37;;;8.10;99.90;;;;;;4956786;29;20497;-69
2023/01/12 05:44:41;;;;;;;7.20;2.90;;;8.10;99.90;;;;;;4956372;29;20205;-68
2023/01/12 05:47:06;;;;;;;9.80;3.40;;;8.10;22.60;;;;;;4954508;28;22252;-73
2023/01/12 05:49:32;;;;;;;8.97;3.90;;;8.10;1.00;;;;;;4955448;29;21023;-68
2023/01/12 05:51:58;;;;;;;8.80;3.43;;;8.10;99.90;;;;;;4954938;28;20557;-64
2023/01/12 05:54:23;;;;;;;6.17;2.90;;;8.10;99.90;;;;;;4963677;28;20212;-67
2023/01/12 05:56:50;;;;;;;10.90;3.90;;;8.10;1.00;;;;;;4958531;28;20259;-70
2023/01/12 05:59:15;;;;;;;6.67;3.30;;;8.10;1.00;;;;;;4955179;28;20289;-68
2023/01/12 06:01:41;;;;;;;4.23;3.10;;;8.10;1.00;;;;;;4952789;28;20884;-68
2023/01/12 06:04:11;;;;;;;4.80;3.10;;;8.10;1.00;;;;;;4954524;28;20280;-68
2023/01/12 06:06:37;;;;;;;6.53;3.13;;;8.10;17.50;;;;;;4956487;28;20202;-68
2023/01/12 06:09:02;;;;;;;9.77;3.47;;;8.10;32.30;;;;;;4948566;29;20440;-68
2023/01/12 06:14:13;;;;;;;6.40;3.30;;;8.10;99.90;;;;;;4954540;29;20220;-67
2023/01/12 06:16:41;;;;;;;6.67;3.20;;;8.10;99.90;;;;;;4954970;28;20473;-67
2023/01/12 06:19:08;;;;;;;7.43;3.90;;;8.10;99.90;;;;;;4954874;28;20440;-69
2023/01/12 06:21:34;;;;;;;6.73;3.90;;;8.10;99.90;;;;;;4954330;29;20955;-69
2023/01/12 06:24:00;;;;;;;8.03;3.63;;;8.10;99.90;;;;;;4954589;29;20433;-69
2023/01/12 06:26:26;;;;;;;6.77;4.00;;;8.20;99.90;;;;;;4953739;29;20208;-67
2023/01/12 06:28:51;;;;;;;8.07;4.23;;;8.20;99.90;;;;;;4954324;29;20777;-66
2023/01/12 06:31:17;;;;;;;7.17;4.50;;;8.20;99.90;;;;;;4953738;29;20200;-68
2023/01/12 06:33:43;;;;;;;12.83;4.73;;;8.20;99.90;;;;;;4954020;29;20301;-68
2023/01/12 06:36:09;;;;;;;7.33;4.57;;;8.20;99.90;;;;;;4954020;28;20616;-69
2023/01/12 06:38:38;;;;;;;6.63;5.20;;;8.20;99.90;;;;;;4954698;28;20759;-68
2023/01/12 06:41:06;;;;;;;7.80;4.97;;;8.20;99.90;;;;;;4954356;28;20775;-66
2023/01/12 06:43:32;;;;;;;6.80;4.50;;;8.20;99.90;;;;;;4955357;29;20414;-68
2023/01/12 06:45:57;;;;;;;8.43;4.40;;;8.30;99.90;;;;;;4955025;29;20884;-68
2023/01/12 06:48:24;;;;;;;7.50;4.93;;;8.30;99.90;;;;;;4954440;29;20700;-68
2023/01/12 06:50:59;;;;;;;6.93;4.63;;;8.30;99.90;;;;;;4936540;29;20804;-68
2023/01/12 06:53:24;;;;;;;6.37;4.83;;;8.30;99.90;;;;;;4958101;28;20471;-68
2023/01/12 06:55:50;;;;;;;9.30;4.60;;;8.30;99.90;;;;;;4974505;28;20468;-46
2023/01/12 06:58:17;;;;;;;7.50;5.33;;;8.30;99.90;;;;;;4955813;28;20644;-46
2023/01/12 07:00:42;;;;;;;6.60;5.03;;;8.30;99.90;;;;;;4954623;29;20413;-46
2023/01/12 07:03:15;;;;;;;9.50;5.10;;;8.30;99.90;;;;;;4953542;29;20496;-45
2023/01/12 07:05:40;;;;;;;7.70;5.00;;;8.30;99.90;;;;;;4954577;28;20726;-46
2023/01/12 07:08:06;;;;;;;6.90;5.13;;;8.30;99.90;;;;;;4952792;29;20457;-46
2023/01/12 07:10:31;;;;;;;6.97;5.10;;;8.30;99.90;;;;;;4953511;29;20197;-46
2023/01/12 07:12:59;;;;;;;9.07;5.73;;;8.30;99.90;;;;;;4951843;29;20201;-45
2023/01/12 07:15:25;;;;;;;8.43;5.40;;;8.30;99.90;;;;;;4944411;29;20239;-46
2023/01/12 07:17:55;;;;;;;12.77;5.60;;;8.30;99.90;;;;;;4951841;29;20445;-46
2023/01/12 07:20:21;;;;;;;10.33;6.20;;;8.30;99.90;;;;;;4952368;28;21823;-52
2023/01/12 07:22:47;;;;;;;9.20;5.30;;;8.30;99.90;;;;;;4952381;29;20468;-46
2023/01/12 07:25:13;;;;;;;7.53;4.93;;;8.40;99.90;;;;;;4953333;29;20460;-46
2023/01/12 07:27:38;;;;;;;6.70;4.60;;;8.40;99.90;;;;;;4953529;28;20202;-45
2023/01/12 07:30:04;;;;;;;7.10;4.10;;;8.40;99.90;;;;;;4953775;28;20190;-45
2023/01/12 07:32:30;;;;;;;4.73;4.33;;;8.40;99.90;;;;;;4952693;29;20569;-46
2023/01/12 07:34:55;;;;;;;6.63;4.70;;;8.40;99.90;;;;;;4953664;29;20413;-44
2023/01/12 07:37:21;;;;;;;6.90;4.50;;;8.40;99.90;;;;;;4950751;29;20286;-45
2023/01/12 07:39:46;;;;;;;4.93;3.80;;;8.50;1.00;;;;;;4953263;29;20241;-45
2023/01/12 07:42:24;;;;;;;10.50;4.30;;;8.50;1.00;;;;;;4951985;28;20242;-45
2023/01/12 07:44:51;;;;;;;7.93;3.80;;;8.40;1.00;;;;;;4957997;28;20192;-46
2023/01/12 07:47:17;;;;;;;7.43;4.33;;;8.40;1.00;;;;;;4953834;28;20452;-46
2023/01/12 07:49:42;;;;;;;6.80;4.00;;;8.40;1.00;;;;;;4953387;29;20410;-46
2023/01/12 07:52:12;;;;;;;6.50;3.97;;;8.40;32.30;;;;;;4953066;29;20261;-46
2023/01/12 07:54:38;;;;;;;7.00;4.10;;;8.40;75.50;;;;;;4926786;29;20206;-45
2023/01/12 07:57:07;;;;;;;6.60;3.80;;;8.40;75.10;;;;;;4950656;29;20477;-43
2023/01/12 07:59:33;;;;;;;6.37;3.63;;;8.50;99.90;;;;;;4952097;29;20210;-45
2023/01/12 08:01:58;;;;;;;4.10;3.07;;;8.50;1.00;;;;;;4951084;28;20943;-45
2023/01/12 08:04:24;;;;;;;5.97;3.00;;;8.50;1.00;;;;;;4948653;29;20576;-45
2023/01/12 08:06:50;;;;;;;9.43;3.23;;;8.50;1.00;;;;;;4948734;29;20189;-45
2023/01/12 08:09:15;;;;;;;6.90;2.70;;;8.50;99.90;;;;;;4948498;29;20212;-45
2023/01/12 08:11:41;;;;;;;4.53;2.60;;;8.50;99.90;;;;;;4955453;28;20196;-45
2023/01/12 08:14:07;;;;;;;4.10;2.30;;;8.40;99.90;;;;;;4955128;29;20197;-45
2023/01/12 08:16:36;;;;;;;2.17;1.97;;;8.40;99.90;;;;;;4952990;29;20214;-44
2023/01/12 08:19:13;;;;;;;1.73;1.57;;;8.40;99.90;;;;;;4952475;29;20197;-44
2023/01/12 08:21:45;;;;;;;1.63;1.50;;;8.40;99.90;;;;;;4954117;29;20737;-45
2023/01/12 08:24:20;;;;;;;3.37;1.57;;;8.30;1.00;;;;;;4953543;28;20421;-45
2023/01/12 08:26:49;;;;;;;3.90;1.90;;;8.30;1.00;;;;;;4953126;28;20488;-45
2023/01/12 08:29:20;;;;;;;2.90;1.40;;;8.30;1.00;;;;;;4951451;29;20810;-45
2023/01/12 08:31:46;;;;;;;3.30;1.70;;;8.30;55.00;;;;;;4951924;29;21156;-45
2023/01/12 08:34:12;;;;;;;2.50;1.47;;;8.30;99.90;;;;;;4952893;29;20437;-45
2023/01/12 08:36:39;;;;;;;4.10;1.50;;;8.30;99.90;;;;;;4945588;29;20246;-44
2023/01/12 08:39:05;;;;;;;3.60;1.20;;;8.20;90.20;;;;;;4931835;29;20345;-45
2023/01/12 08:41:36;;;;;;;1.80;1.40;;;8.30;1.00;;;;;;4931559;29;20848;-45
2023/01/12 08:44:09;;;;;;;5.10;1.30;;;8.30;1.00;;;;;;4927408;29;20239;-46
2023/01/12 08:46:50;;;;;;;1.77;1.53;;;8.30;99.90;;;;;;4928169;29;20553;-46
2023/01/12 08:49:21;;;;;;;1.40;1.20;;;8.20;99.90;;;;;;4930168;29;20504;-45
2023/01/12 08:51:47;;;;;;;4.50;1.40;;;8.30;99.90;;;;;;4933669;29;21170;-45
2023/01/12 08:54:14;;;;;;;2.47;1.87;;;8.30;99.90;;;;;;4932936;29;20454;-45
2023/01/12 08:56:40;;;;;;;3.50;1.40;;;8.30;1.00;;;;;;4936550;29;20458;-48
2023/01/12 08:59:06;;;;;;;3.13;1.50;;;8.30;1.00;;;;;;4934730;29;20521;-44
2023/01/12 09:01:32;;;;;;;2.50;1.07;;;8.30;1.00;;;;;;4935821;29;20194;-45
2023/01/12 09:03:58;;;;;;;1.53;1.43;;;8.40;31.80;;;;;;4936429;29;20449;-44
2023/01/12 09:06:27;;;;;;;1.67;1.00;;;8.30;99.90;;;;;;4935805;29;20466;-45
2023/01/12 09:08:54;;;;;;;4.00;1.50;;;8.40;99.90;;;;;;4936597;29;20418;-45
2023/01/12 09:11:19;;;;;;;2.70;1.20;;;8.40;99.90;;;;;;4936124;29;20427;-45
2023/01/12 09:13:45;;;;;;;1.30;1.20;;;8.40;99.90;;;;;;4936372;29;20482;-44
2023/01/12 09:16:14;;;;;;;1.37;1.20;;;8.40;99.90;;;;;;4936112;29;20237;-45
2023/01/12 09:18:40;;;;;;;3.13;1.60;;;8.30;99.90;;;;;;4935971;29;20268;-45
2023/01/12 09:21:08;;;;;;;2.93;1.30;;;8.30;99.90;;;;;;4936435;29;20461;-45
2023/01/12 09:23:34;;;;;;;1.43;1.07;;;8.40;99.90;;;;;;4935898;29;21014;-44
2023/01/12 09:26:05;;;;;;;1.40;1.30;;;8.30;99.90;;;;;;4935954;29;20422;-45
2023/01/12 09:28:32;;;;;;;1.67;1.20;;;8.40;1.00;;;;;;4936190;29;20445;-45
2023/01/12 09:31:04;;;;;;;2.90;1.23;;;8.40;1.00;;;;;;4935639;29;20454;-44
2023/01/12 09:33:32;;;;;;;1.80;1.50;;;8.40;1.00;;;;;;4935854;29;20517;-44
2023/01/12 09:36:18;;;;;;;2.40;1.27;;;8.40;1.00;;;;;;4941060;29;20489;-45
2023/01/12 09:38:45;;;;;;;1.30;1.20;;;8.40;1.00;;;;;;4955090;29;20410;-45
2023/01/12 09:47:43;;;;;;;1.47;1.17;;;8.60;1.00;;;;;;4955215;29;20409;-45
2023/01/12 09:50:14;;;;;;;2.93;1.30;;;8.60;1.00;;;;;;4954677;29;20513;-45
2023/01/12 09:53:04;;;;;;;4.80;1.43;;;8.70;1.00;;;;;;4954820;29;20890;-44
2023/01/12 09:55:44;;;;;;;2.30;1.50;;;8.70;1.00;;;;;;4954809;29;20461;-45
2023/01/12 09:58:33;;;;;;;2.33;1.27;;;8.80;1.00;;;;;;4954837;29;20437;-45
2023/01/12 10:01:06;;;;;;;4.60;1.10;;;8.80;1.00;;;;;;4954958;29;20876;-45
2023/01/12 10:03:37;;;;;;;1.90;1.43;;;8.90;1.00;;;;;;4954897;29;20418;-44
2023/01/12 10:06:04;;;;;;;2.03;1.43;;;8.90;1.00;;;;;;4944759;28;20446;-45
2023/01/12 10:08:32;;;;;;;1.30;1.20;;;8.90;1.00;;;;;;4929341;29;20569;-45
2023/01/12 10:11:28;;;;;;;3.60;1.30;;;8.90;1.00;;;;;;4935201;29;20780;-45
2023/01/12 10:14:12;;;;;;;1.40;1.30;;;8.90;1.00;;;;;;4938058;29;20437;-45
2023/01/12 10:16:40;;;;;;;4.80;1.43;;;8.90;1.00;;;;;;4954175;28;20465;-45
2023/01/12 10:19:38;;;;;;;2.30;1.33;;;8.90;1.00;;;;;;4952310;29;20441;-45
2023/01/12 10:22:35;;;;;;;1.50;1.40;;;8.90;1.00;;;;;;4954032;29;20410;-44
2023/01/12 10:25:39;;;;;;;1.40;1.30;;;9.00;1.00;;;;;;4916301;29;20443;-46
2023/01/12 10:28:11;;;;;;;1.40;1.20;;;9.00;1.00;;;;;;4916882;29;20456;-46
2023/01/12 10:30:39;;;;;;;1.50;1.40;;;9.00;1.00;;;;;;4934887;29;20417;-46
2023/01/12 10:33:15;;;;;;;1.73;1.50;;;9.10;1.00;;;;;;4949693;28;20877;-46
2023/01/12 10:36:07;;;;;;;1.80;1.20;;;9.10;1.00;;;;;;4952643;29;20483;-46
2023/01/12 10:38:38;;;;;;;1.40;1.30;;;9.10;1.00;;;;;;4953300;28;20194;-46
2023/01/12 10:41:09;;;;;;;3.13;1.40;;;9.10;1.00;;;;;;4953165;29;20410;-45
2023/01/12 10:43:36;;;;;;;1.37;1.27;;;9.10;1.00;;;;;;4953281;29;20417;-46
2023/01/12 10:46:18;;;;;;;1.50;1.40;;;9.10;1.00;;;;;;4936764;29;20769;-46
2023/01/12 10:48:48;;;;;;;1.60;1.50;;;9.20;1.00;;;;;;4934392;29;20517;-45
2023/01/12 10:51:48;;;;;;;1.70;1.40;;;9.30;1.00;;;;;;4934101;29;21003;-45
2023/01/12 10:54:21;;;;;;;1.70;1.60;;;9.30;1.00;;;;;;4914235;29;20541;-46
2023/01/12 10:57:00;;;;;;;1.40;1.30;;;9.30;1.00;;;;;;4950756;29;20504;-57
2023/01/12 10:59:30;;;;;;;1.83;1.50;;;9.30;1.00;;;;;;4953458;28;20432;-46
2023/01/12 11:02:05;;;;;;;1.30;1.20;;;9.30;1.00;;;;;;4952275;29;20533;-46
2023/01/12 11:04:40;;;;;;;3.40;1.70;;;9.30;1.00;;;;;;4953664;28;20424;-46
2023/01/12 11:07:10;;;;;;;1.60;1.50;;;9.30;1.00;;;;;;4953103;29;20421;-46
2023/01/12 11:09:37;;;;;;;1.60;1.50;;;9.40;1.00;;;;;;4953761;29;20441;-45
2023/01/12 11:12:28;;;;;;;1.80;1.70;;;9.40;1.00;;;;;;4920960;29;20454;-45
2023/01/12 11:15:16;;;;;;;2.43;1.47;;;9.40;1.00;;;;;;4933622;29;20541;-46
2023/01/12 11:18:20;;;;;;;2.30;1.50;;;9.40;1.00;;;;;;4915169;29;20784;-45
2023/01/12 11:20:50;;;;;;;1.47;1.37;;;9.50;1.00;;;;;;4927566;29;20437;-46
2023/01/12 11:23:22;;;;;;;2.50;1.30;;;9.50;1.00;;;;;;4953094;28;20485;-45
2023/01/12 11:25:51;;;;;;;1.40;1.23;;;9.60;1.00;;;;;;4951182;29;20442;-45
2023/01/12 11:28:28;;;;;;;2.00;1.60;;;9.60;1.00;;;;;;4953084;29;20425;-44
2023/01/12 11:31:18;;;;;;;5.13;1.53;;;9.60;1.00;;;;;;4951219;29;20529;-45
2023/01/12 11:34:09;;;;;;;3.80;1.93;;;9.60;1.00;;;;;;4953134;28;20877;-45
2023/01/12 11:36:40;;;;;;;2.60;1.30;;;9.70;1.00;;;;;;4949502;29;20507;-45
2023/01/12 11:39:11;;;;;;;1.70;1.60;;;9.70;1.00;;;;;;4952905;29;20512;-45
2023/01/12 11:43:47;;;;;;;1.50;1.20;;;9.70;1.00;;;;;;4949814;29;20457;-46
2023/01/12 11:44:54;;;;;;;1.77;1.40;;;9.70;1.00;;;;;;4951473;28;20418;-45
2023/01/12 11:47:35;;;;;;;1.57;1.47;;;9.70;1.00;;;;;;4936984;29;21039;-46
2023/01/12 11:50:31;;;;;;;2.40;1.10;;;9.80;1.00;;;;;;4940190;29;20617;-45
2023/01/12 11:52:57;;;;;;;2.60;1.20;;;9.80;1.00;;;;;;4956952;29;20418;-46
2023/01/12 11:55:38;;;;;;;3.60;1.20;;;9.70;1.00;;;;;;4941099;29;20457;-46
2023/01/12 11:58:22;;;;;;;1.53;1.43;;;9.70;1.00;;;;;;4937725;29;20855;-46
2023/01/12 12:00:57;;;;;;;1.60;1.50;;;9.70;1.00;;;;;;4945295;28;20537;-47
2023/01/12 12:03:44;;;;;;;3.97;1.73;;;9.80;1.00;;;;;;4955517;29;20503;-46
2023/01/12 12:06:41;;;;;;;2.50;1.67;;;9.70;1.00;;;;;;4954889;29;20506;-47
2023/01/12 12:09:18;;;;;;;2.50;1.73;;;9.80;1.00;;;;;;4916730;29;20457;-47
2023/01/12 12:11:58;;;;;;;1.47;1.37;;;9.80;1.00;;;;;;4954340;29;20445;-47
2023/01/12 12:14:37;;;;;;;3.00;1.70;;;9.90;1.00;;;;;;4956253;29;20768;-46
2023/01/12 12:17:05;;;;;;;1.70;1.60;;;9.90;1.00;;;;;;4954369;29;21034;-46
2023/01/12 12:20:06;;;;;;;2.80;1.70;;;10.00;1.00;;;;;;4956208;28;20405;-48
2023/01/12 12:22:37;;;;;;;1.60;1.50;;;10.00;1.00;;;;;;4946012;29;20484;-46
2023/01/12 12:25:12;;;;;;;2.53;1.70;;;10.00;1.00;;;;;;4954930;29;21083;-46
2023/01/12 12:27:57;;;;;;;1.93;1.73;;;10.00;1.00;;;;;;4918137;29;20406;-46
2023/01/12 12:30:55;;;;;;;1.40;1.30;;;10.10;1.00;;;;;;4922897;29;20750;-46
2023/01/12 12:33:20;;;;;;;1.70;1.60;;;10.10;1.00;;;;;;4928737;29;20449;-47
2023/01/12 12:35:59;;;;;;;2.37;1.93;;;10.10;1.00;;;;;;4943863;29;20945;-46
2023/01/12 12:39:04;;;;;;;6.23;1.93;;;10.20;1.00;;;;;;4954026;29;20256;-46
2023/01/12 12:45:16;;;;;;;3.13;2.40;;;10.20;1.00;;;;;;4955913;29;20408;-46
2023/01/12 12:48:08;;;;;;;3.75;2.83;;;10.30;1.00;;;;;;4953571;28;20440;-46
2023/01/12 12:50:47;;;;;;;5.03;3.20;;;10.30;1.00;;;;;;4959767;28;20225;-46
2023/01/12 12:53:27;;;;;;;3.27;2.97;;;10.40;1.00;;;;;;4958889;28;20440;-45
2023/01/12 12:55:57;;;;;;;3.10;2.63;;;10.40;1.00;;;;;;4952950;28;20472;-46
2023/01/12 12:58:23;;;;;;;2.50;2.30;;;10.40;1.00;;;;;;4952025;29;20445;-47
2023/01/12 13:00:50;;;;;;;3.60;2.50;;;10.40;1.00;;;;;;4956039;28;20954;-46
2023/01/12 13:03:38;;;;;;;2.27;2.07;;;10.50;1.00;;;;;;4954210;28;20194;-46
2023/01/12 13:06:30;;;;;;;2.60;1.73;;;10.50;1.00;;;;;;4954972;29;20589;-46
2023/01/12 13:08:56;;;;;;;4.43;1.97;;;10.90;1.00;;;;;;4936493;29;20411;-48
2023/01/12 13:12:07;;;;;;;2.70;1.50;;;11.50;1.00;;;;;;4953047;29;20931;-46
2023/01/12 13:14:38;;;;;;;3.67;1.43;;;11.80;99.90;;;;;;4954674;29;20934;-46
2023/01/12 13:17:19;;;;;;;3.77;1.50;;;12.30;1.00;;;;;;4954705;29;20475;-46
2023/01/12 13:19:48;;;;;;;4.40;1.33;;;12.80;99.90;;;;;;4953957;29;20439;-46
2023/01/12 13:22:31;;;;;;;4.73;1.10;;;13.10;99.90;;;;;;4954827;28;20417;-46
2023/01/12 13:25:08;;;;;;;2.70;0.93;;;13.30;74.60;;;;;;4937315;29;20453;-46
2023/01/12 13:27:59;;;;;;;2.27;1.37;;;13.40;99.90;;;;;;4954629;29;20441;-46
2023/01/12 13:30:27;;;;;;;8.23;1.50;;;13.40;99.90;;;;;;4955299;29;20409;-47
2023/01/12 13:32:59;;;;;;;10.17;1.80;;;12.90;99.90;;;;;;4952609;28;21025;-46
2023/01/12 13:35:32;;;;;;;6.13;1.53;;;12.40;1.00;;;;;;4952874;28;20541;-46
2023/01/12 13:38:15;;;;;;;6.13;1.60;;;12.00;1.00;;;;;;4953008;29;20443;-47
2023/01/12 13:40:41;;;;;;;6.30;1.73;;;11.70;99.90;;;;;;4949731;29;20794;-46
2023/01/12 13:43:33;;;;;;;3.57;1.60;;;11.50;1.00;;;;;;4962247;28;20441;-46
2023/01/12 13:46:19;;;;;;;9.90;2.07;;;11.40;1.00;;;;;;4946749;29;20947;-46
2023/01/12 13:48:54;;;;;;;6.17;1.67;;;11.30;1.00;;;;;;4954443;28;20843;-46
2023/01/12 13:51:21;;;;;;;5.90;1.90;;;11.20;18.50;;;;;;4954724;29;20402;-46
2023/01/12 13:53:58;;;;;;;5.10;1.80;;;11.20;78.50;;;;;;4953059;29;20951;-47